createdAt,value
2017-05-06T00:00:53.905Z,0
2017-05-06T00:02:04.170Z,0
2017-05-06T00:03:14.429Z,0
2017-05-06T00:04:24.385Z,0
2017-05-06T00:05:34.655Z,0
2017-05-06T00:06:44.602Z,0
2017-05-06T00:07:54.898Z,0
2017-05-06T00:09:04.858Z,0
2017-05-06T00:10:14.810Z,0
2017-05-06T00:11:25.076Z,0
2017-05-06T00:12:35.340Z,0
2017-05-06T00:13:45.607Z,0
2017-05-06T00:14:55.877Z,0
2017-05-06T00:16:06.142Z,0
2017-05-06T00:17:15.486Z,0
2017-05-06T00:18:25.750Z,0
2017-05-06T00:19:36.015Z,0
2017-05-06T00:20:46.308Z,0
2017-05-06T00:21:56.576Z,0
2017-05-06T00:23:06.842Z,0
2017-05-06T00:24:16.788Z,0
2017-05-06T00:25:27.054Z,0
2017-05-06T00:26:37.317Z,0
2017-05-06T00:27:47.589Z,0
2017-05-06T00:28:57.886Z,0
2017-05-06T00:30:07.517Z,0
2017-05-06T00:31:17.474Z,0
2017-05-06T00:32:27.735Z,0
2017-05-06T00:33:38.009Z,0
2017-05-06T00:34:48.297Z,0
2017-05-06T00:35:58.571Z,0
2017-05-06T00:37:08.837Z,0
2017-05-06T00:38:18.470Z,0
2017-05-06T00:39:28.424Z,0
2017-05-06T00:40:38.687Z,0
2017-05-06T00:41:48.635Z,0
2017-05-06T00:42:58.896Z,0
2017-05-06T00:44:09.161Z,0
2017-05-06T00:45:19.102Z,0
2017-05-06T00:46:29.365Z,0
2017-05-06T00:47:39.637Z,0
2017-05-06T00:48:49.903Z,0
2017-05-06T00:49:59.864Z,0
2017-05-06T00:51:09.817Z,0
2017-05-06T00:52:19.769Z,0
2017-05-06T00:53:30.036Z,0
2017-05-06T00:54:40.302Z,0
2017-05-06T00:55:50.563Z,0
2017-05-06T00:57:00.828Z,0
2017-05-06T00:58:10.482Z,0
2017-05-06T00:59:20.743Z,0
2017-05-06T01:00:30.699Z,0
2017-05-06T01:01:40.966Z,0
2017-05-06T01:02:51.236Z,0
2017-05-06T01:04:01.506Z,0
2017-05-06T01:05:11.772Z,0
2017-05-06T01:06:22.046Z,0
2017-05-06T01:07:32.307Z,0
2017-05-06T01:08:42.575Z,0
2017-05-06T01:09:52.839Z,0
2017-05-06T01:11:03.107Z,0
2017-05-06T01:12:13.370Z,0
2017-05-06T01:13:23.636Z,0
2017-05-06T01:14:33.897Z,0
2017-05-06T01:15:44.159Z,0
2017-05-06T01:16:54.424Z,0
2017-05-06T01:18:04.689Z,0
2017-05-06T01:19:14.642Z,0
2017-05-06T01:20:24.906Z,0
2017-05-06T01:21:34.858Z,0
2017-05-06T01:22:44.497Z,0
2017-05-06T01:23:54.778Z,0
2017-05-06T01:25:04.741Z,0
2017-05-06T01:26:14.687Z,0
2017-05-06T01:27:24.951Z,0
2017-05-06T01:28:34.902Z,0
2017-05-06T01:29:45.198Z,0
2017-05-06T01:30:55.465Z,0
2017-05-06T01:32:05.418Z,0
2017-05-06T01:33:14.736Z,0
2017-05-06T01:34:25.008Z,0
2017-05-06T01:35:35.269Z,0
2017-05-06T01:36:45.532Z,0
2017-05-06T01:37:55.802Z,0
2017-05-06T01:39:05.757Z,0
2017-05-06T01:40:15.707Z,0
2017-05-06T01:41:25.975Z,0
2017-05-06T01:42:36.234Z,0
2017-05-06T01:43:46.501Z,0
2017-05-06T01:44:56.456Z,0
2017-05-06T01:46:06.720Z,0
2017-05-06T01:47:16.984Z,0
2017-05-06T01:48:26.938Z,0
2017-05-06T01:49:37.205Z,0
2017-05-06T01:50:47.162Z,0
2017-05-06T01:51:57.433Z,0
2017-05-06T01:53:07.701Z,0
2017-05-06T01:54:17.655Z,0
2017-05-06T01:55:27.913Z,0
2017-05-06T01:56:38.183Z,0
2017-05-06T01:57:48.449Z,0
2017-05-06T01:58:58.713Z,0
2017-05-06T02:00:08.973Z,0
2017-05-06T02:01:19.231Z,4
2017-05-06T02:02:29.496Z,4
2017-05-06T02:03:39.755Z,4
2017-05-06T02:04:49.718Z,0
2017-05-06T02:05:59.983Z,0
2017-05-06T02:07:09.931Z,4
2017-05-06T02:08:20.191Z,4
2017-05-06T02:09:30.461Z,4
2017-05-06T02:10:40.728Z,4
2017-05-06T02:11:51.038Z,4
2017-05-06T02:13:01.300Z,8
2017-05-06T02:14:10.944Z,4
2017-05-06T02:15:21.203Z,8
2017-05-06T02:16:31.470Z,4
2017-05-06T02:17:41.754Z,8
2017-05-06T02:18:52.018Z,8
2017-05-06T02:20:02.285Z,8
2017-05-06T02:21:12.543Z,8
2017-05-06T02:22:22.803Z,8
2017-05-06T02:23:32.763Z,12
2017-05-06T02:24:42.715Z,12
2017-05-06T02:25:52.678Z,16
2017-05-06T02:27:02.947Z,20
2017-05-06T02:28:13.206Z,20
2017-05-06T02:29:23.508Z,24
2017-05-06T02:30:33.767Z,24
2017-05-06T02:31:43.416Z,28
2017-05-06T02:32:53.693Z,32
2017-05-06T02:34:03.650Z,36
2017-05-06T02:35:13.601Z,40
2017-05-06T02:36:23.867Z,48
2017-05-06T02:37:34.129Z,48
2017-05-06T02:38:44.081Z,56
2017-05-06T02:39:54.382Z,60
2017-05-06T02:41:04.647Z,68
2017-05-06T02:42:14.919Z,76
2017-05-06T02:43:24.869Z,84
2017-05-06T02:44:35.135Z,92
2017-05-06T02:45:44.769Z,104
2017-05-06T02:46:54.718Z,112
2017-05-06T02:48:04.984Z,124
2017-05-06T02:49:15.246Z,136
2017-05-06T02:50:25.520Z,144
2017-05-06T02:51:35.817Z,160
2017-05-06T02:52:46.081Z,176
2017-05-06T02:53:56.046Z,188
2017-05-06T02:55:05.685Z,204
2017-05-06T02:56:15.947Z,220
2017-05-06T02:57:25.895Z,240
2017-05-06T02:58:36.166Z,256
2017-05-06T02:59:46.434Z,276
2017-05-06T03:00:56.698Z,292
2017-05-06T03:02:06.965Z,316
2017-05-06T03:03:17.225Z,336
2017-05-06T03:04:27.180Z,360
2017-05-06T03:05:37.436Z,380
2017-05-06T03:06:47.384Z,404
2017-05-06T03:07:57.649Z,432
2017-05-06T03:09:07.918Z,456
2017-05-06T03:10:17.873Z,480
2017-05-06T03:11:28.130Z,508
2017-05-06T03:12:38.403Z,532
2017-05-06T03:13:48.356Z,560
2017-05-06T03:14:58.619Z,588
2017-05-06T03:16:08.886Z,616
2017-05-06T03:17:19.152Z,644
2017-05-06T03:18:29.427Z,672
2017-05-06T03:19:39.695Z,700
2017-05-06T03:20:49.962Z,728
2017-05-06T03:22:00.218Z,760
2017-05-06T03:23:10.483Z,784
2017-05-06T03:24:20.121Z,816
2017-05-06T03:25:29.761Z,840
2017-05-06T03:26:39.711Z,872
2017-05-06T03:27:49.975Z,900
2017-05-06T03:29:00.236Z,928
2017-05-06T03:30:10.196Z,960
2017-05-06T03:31:19.830Z,988
2017-05-06T03:32:30.100Z,1016
2017-05-06T03:33:40.372Z,1044
2017-05-06T03:34:50.652Z,1076
2017-05-06T03:36:00.913Z,1104
2017-05-06T03:37:11.181Z,1136
2017-05-06T03:38:21.134Z,1164
2017-05-06T03:39:31.398Z,1192
2017-05-06T03:40:41.683Z,1220
2017-05-06T03:41:51.949Z,1248
2017-05-06T03:43:02.209Z,1276
2017-05-06T03:44:12.162Z,1304
2017-05-06T03:45:22.115Z,1336
2017-05-06T03:46:32.379Z,1364
2017-05-06T03:47:42.333Z,1388
2017-05-06T03:48:52.594Z,1416
2017-05-06T03:50:02.853Z,1448
2017-05-06T03:51:12.515Z,1472
2017-05-06T03:52:22.463Z,1500
2017-05-06T03:53:32.725Z,1528
2017-05-06T03:54:42.996Z,1556
2017-05-06T03:55:53.263Z,1584
2017-05-06T03:57:03.527Z,1612
2017-05-06T03:58:13.481Z,1636
2017-05-06T03:59:23.435Z,1660
2017-05-06T04:00:33.705Z,1688
2017-05-06T04:01:43.967Z,1712
2017-05-06T04:02:54.231Z,1740
2017-05-06T04:04:04.488Z,1760
2017-05-06T04:05:14.431Z,1784
2017-05-06T04:06:24.686Z,1808
2017-05-06T04:07:34.955Z,1832
2017-05-06T04:08:44.935Z,1856
2017-05-06T04:09:55.204Z,1880
2017-05-06T04:11:05.462Z,1900
2017-05-06T04:12:15.090Z,1920
2017-05-06T04:13:25.352Z,1944
2017-05-06T04:14:35.612Z,1964
2017-05-06T04:15:45.870Z,1984
2017-05-06T04:16:56.132Z,2004
2017-05-06T04:18:06.393Z,2028
2017-05-06T04:19:16.663Z,2052
2017-05-06T04:20:26.921Z,2072
2017-05-06T04:21:36.864Z,2088
2017-05-06T04:22:47.326Z,2112
2017-05-06T04:23:57.586Z,2132
2017-05-06T04:25:07.851Z,2148
2017-05-06T04:26:17.806Z,2168
2017-05-06T04:27:27.754Z,2188
2017-05-06T04:28:38.011Z,2208
2017-05-06T04:29:48.284Z,2224
2017-05-06T04:30:58.551Z,2248
2017-05-06T04:32:08.807Z,2268
2017-05-06T04:33:18.755Z,2280
2017-05-06T04:34:28.710Z,2304
2017-05-06T04:35:38.969Z,2316
2017-05-06T04:36:49.230Z,2336
2017-05-06T04:37:59.493Z,2356
2017-05-06T04:39:09.757Z,2372
2017-05-06T04:40:20.019Z,2388
2017-05-06T04:41:30.317Z,2404
2017-05-06T04:42:39.960Z,2416
2017-05-06T04:43:49.916Z,2432
2017-05-06T04:45:00.182Z,2448
2017-05-06T04:46:10.130Z,2460
2017-05-06T04:47:19.759Z,2472
2017-05-06T04:48:29.713Z,2488
2017-05-06T04:49:39.975Z,2504
2017-05-06T04:50:50.236Z,2516
2017-05-06T04:52:00.180Z,2524
2017-05-06T04:53:10.131Z,2536
2017-05-06T04:54:19.768Z,2552
2017-05-06T04:55:29.715Z,2560
2017-05-06T04:56:39.972Z,2572
2017-05-06T04:57:50.237Z,2584
2017-05-06T04:59:00.499Z,2600
2017-05-06T05:00:10.451Z,2608
2017-05-06T05:01:19.774Z,2624
2017-05-06T05:02:30.046Z,2632
2017-05-06T05:03:39.997Z,2636
2017-05-06T05:04:49.942Z,2648
2017-05-06T05:05:59.896Z,2656
2017-05-06T05:07:09.847Z,2668
2017-05-06T05:08:19.480Z,2676
2017-05-06T05:09:29.437Z,2688
2017-05-06T05:10:39.384Z,2696
2017-05-06T05:11:49.641Z,2704
2017-05-06T05:12:59.898Z,2712
2017-05-06T05:14:09.849Z,2724
2017-05-06T05:15:19.803Z,2728
2017-05-06T05:16:30.064Z,2740
2017-05-06T05:17:40.335Z,2744
2017-05-06T05:18:50.607Z,2756
2017-05-06T05:20:00.902Z,2760
2017-05-06T05:21:11.160Z,2772
2017-05-06T05:22:21.417Z,2776
2017-05-06T05:23:31.674Z,2780
2017-05-06T05:24:41.936Z,2788
2017-05-06T05:25:52.196Z,2796
2017-05-06T05:27:02.455Z,2804
2017-05-06T05:28:12.726Z,2808
2017-05-06T05:29:22.670Z,2812
2017-05-06T05:30:32.925Z,2824
2017-05-06T05:31:42.879Z,2836
2017-05-06T05:32:53.141Z,2844
2017-05-06T05:34:03.402Z,2848
2017-05-06T05:35:13.351Z,2860
2017-05-06T05:36:23.917Z,2864
2017-05-06T05:37:34.179Z,2868
2017-05-06T05:38:44.131Z,2876
2017-05-06T05:39:54.088Z,2880
2017-05-06T05:41:04.044Z,2888
2017-05-06T05:42:14.334Z,2892
2017-05-06T05:43:24.603Z,2900
2017-05-06T05:44:34.870Z,2904
2017-05-06T05:45:44.827Z,2912
2017-05-06T05:46:55.090Z,2916
2017-05-06T05:48:05.352Z,2920
2017-05-06T05:49:15.310Z,2928
2017-05-06T05:50:25.584Z,2932
2017-05-06T05:51:35.855Z,2940
2017-05-06T05:52:46.122Z,2944
2017-05-06T05:53:56.391Z,2952
2017-05-06T05:55:06.659Z,2960
2017-05-06T05:56:16.926Z,2956
2017-05-06T05:57:27.194Z,2964
2017-05-06T05:58:37.457Z,2968
2017-05-06T05:59:47.756Z,2972
2017-05-06T06:00:58.022Z,2976
2017-05-06T06:02:07.979Z,2980
2017-05-06T06:03:17.305Z,2984
2017-05-06T06:04:27.570Z,3004
2017-05-06T06:05:37.552Z,3000
2017-05-06T06:06:47.812Z,3000
2017-05-06T06:07:58.081Z,3004
2017-05-06T06:09:08.343Z,3008
2017-05-06T06:10:18.293Z,3012
2017-05-06T06:11:27.924Z,3012
2017-05-06T06:12:38.185Z,3020
2017-05-06T06:13:48.450Z,3020
2017-05-06T06:14:58.715Z,3028
2017-05-06T06:16:08.983Z,3028
2017-05-06T06:17:19.502Z,3032
2017-05-06T06:18:29.451Z,3036
2017-05-06T06:19:39.713Z,3040
2017-05-06T06:20:49.982Z,3044
2017-05-06T06:22:00.240Z,3052
2017-05-06T06:23:09.880Z,3052
2017-05-06T06:24:20.149Z,3056
2017-05-06T06:25:30.103Z,3064
2017-05-06T06:26:39.745Z,3064
2017-05-06T06:27:49.377Z,3068
2017-05-06T06:28:59.843Z,3076
2017-05-06T06:30:09.479Z,3100
2017-05-06T06:31:19.114Z,3108
2017-05-06T06:32:29.377Z,3088
2017-05-06T06:33:39.643Z,3092
2017-05-06T06:34:49.945Z,3096
2017-05-06T06:35:59.894Z,3096
2017-05-06T06:37:10.159Z,3104
2017-05-06T06:38:20.428Z,3108
2017-05-06T06:39:30.692Z,3116
2017-05-06T06:40:40.954Z,3120
2017-05-06T06:41:51.227Z,3128
2017-05-06T06:43:01.490Z,3128
2017-05-06T06:44:11.442Z,3136
2017-05-06T06:45:21.073Z,3176
2017-05-06T06:46:35.164Z,3140
2017-05-06T06:47:45.433Z,3152
2017-05-06T06:48:55.385Z,3152
2017-05-06T06:50:05.341Z,3192
2017-05-06T06:51:15.302Z,3164
2017-05-06T06:52:25.559Z,3168
2017-05-06T06:53:35.511Z,3172
2017-05-06T06:54:45.773Z,3176
2017-05-06T06:55:56.039Z,3180
2017-05-06T06:57:06.300Z,3184
2017-05-06T06:58:16.246Z,3188
2017-05-06T06:59:26.205Z,3192
2017-05-06T07:00:36.469Z,3204
2017-05-06T07:01:46.729Z,3204
2017-05-06T07:02:56.988Z,3208
2017-05-06T07:04:07.262Z,3212
2017-05-06T07:05:17.213Z,3220
2017-05-06T07:06:27.165Z,3228
2017-05-06T07:07:37.428Z,3236
2017-05-06T07:08:47.699Z,3236
2017-05-06T07:09:57.659Z,3236
2017-05-06T07:11:07.924Z,3252
2017-05-06T07:12:16.937Z,3256
2017-05-06T07:13:27.205Z,3268
2017-05-06T07:14:37.157Z,3268
2017-05-06T07:15:47.423Z,3268
2017-05-06T07:16:57.698Z,3276
2017-05-06T07:18:07.966Z,3276
2017-05-06T07:19:17.916Z,3284
2017-05-06T07:20:28.191Z,3292
2017-05-06T07:21:38.140Z,3312
2017-05-06T07:22:48.404Z,3304
2017-05-06T07:23:58.670Z,3356
2017-05-06T07:25:08.627Z,3360
2017-05-06T07:26:18.575Z,3348
2017-05-06T07:27:28.847Z,3344
2017-05-06T07:28:39.113Z,3340
2017-05-06T07:29:49.379Z,3344
2017-05-06T07:30:59.645Z,3356
2017-05-06T07:32:09.283Z,3364
2017-05-06T07:33:18.917Z,3368
2017-05-06T07:34:29.182Z,3376
2017-05-06T07:35:38.825Z,3384
2017-05-06T07:36:48.778Z,3392
2017-05-06T07:37:58.728Z,3400
2017-05-06T07:39:08.994Z,3404
2017-05-06T07:40:18.940Z,3412
2017-05-06T07:41:29.238Z,3420
2017-05-06T07:42:39.501Z,3424
2017-05-06T07:43:49.772Z,3428
2017-05-06T07:44:59.732Z,3440
2017-05-06T07:46:09.999Z,3448
2017-05-06T07:47:19.951Z,3456
2017-05-06T07:48:29.903Z,3464
2017-05-06T07:49:39.538Z,3472
2017-05-06T07:50:49.804Z,3476
2017-05-06T07:52:00.070Z,3484
2017-05-06T07:53:10.026Z,3492
2017-05-06T07:54:19.977Z,3500
2017-05-06T07:55:30.254Z,3504
2017-05-06T07:56:40.520Z,3508
2017-05-06T07:57:50.790Z,3516
2017-05-06T07:59:00.430Z,3524
2017-05-06T08:00:10.093Z,3532
2017-05-06T08:01:19.732Z,3540
2017-05-06T08:02:30.005Z,3548
2017-05-06T08:03:40.270Z,3556
2017-05-06T08:04:50.540Z,3564
2017-05-06T08:06:00.813Z,3572
2017-05-06T08:07:10.138Z,3580
2017-05-06T08:08:19.467Z,3584
2017-05-06T08:09:29.726Z,3596
2017-05-06T08:10:39.689Z,3596
2017-05-06T08:11:49.958Z,3608
2017-05-06T08:13:00.231Z,3620
2017-05-06T08:14:10.495Z,3632
2017-05-06T08:15:20.765Z,3644
2017-05-06T08:16:30.713Z,3652
2017-05-06T08:17:40.660Z,3668
2017-05-06T08:18:50.946Z,3692
2017-05-06T08:20:00.589Z,3696
2017-05-06T08:21:10.852Z,3700
2017-05-06T08:22:20.809Z,3716
2017-05-06T08:23:30.761Z,3728
2017-05-06T08:24:41.030Z,3736
2017-05-06T08:25:51.303Z,3744
2017-05-06T08:27:01.570Z,3756
2017-05-06T08:28:11.216Z,3764
2017-05-06T08:29:21.489Z,3784
2017-05-06T08:30:31.755Z,3792
2017-05-06T08:31:41.392Z,3812
2017-05-06T08:32:51.659Z,3824
2017-05-06T08:34:01.928Z,3840
2017-05-06T08:35:11.878Z,3852
2017-05-06T08:36:21.845Z,3864
2017-05-06T08:37:32.114Z,3876
2017-05-06T08:38:42.068Z,3888
2017-05-06T08:39:52.330Z,3896
2017-05-06T08:41:02.603Z,3912
2017-05-06T08:42:12.874Z,3924
2017-05-06T08:43:23.141Z,3936
2017-05-06T08:44:33.101Z,3948
2017-05-06T08:45:43.053Z,3960
2017-05-06T08:46:53.330Z,3968
2017-05-06T08:48:03.602Z,3984
2017-05-06T08:49:13.875Z,4004
2017-05-06T08:50:23.519Z,4016
2017-05-06T08:51:32.849Z,4028
2017-05-06T08:52:43.122Z,4036
2017-05-06T08:53:53.391Z,4048
2017-05-06T08:55:03.657Z,4056
2017-05-06T08:56:12.984Z,4064
2017-05-06T08:57:22.944Z,4088
2017-05-06T08:58:32.893Z,4100
2017-05-06T08:59:42.850Z,4124
2017-05-06T09:00:52.810Z,4116
2017-05-06T09:02:03.082Z,4144
2017-05-06T09:03:13.344Z,4152
2017-05-06T09:04:23.614Z,4164
2017-05-06T09:05:33.876Z,4180
2017-05-06T09:06:44.139Z,4188
2017-05-06T09:07:54.101Z,4200
2017-05-06T09:09:04.070Z,4208
2017-05-06T09:10:14.032Z,4220
2017-05-06T09:11:24.295Z,4232
2017-05-06T09:12:34.563Z,4244
2017-05-06T09:13:44.518Z,4260
2017-05-06T09:14:54.789Z,4276
2017-05-06T09:16:05.051Z,4284
2017-05-06T09:17:14.692Z,4300
2017-05-06T09:18:24.966Z,4312
2017-05-06T09:19:35.245Z,4332
2017-05-06T09:20:45.509Z,4360
2017-05-06T09:21:55.773Z,4372
2017-05-06T09:23:06.040Z,4384
2017-05-06T09:24:15.691Z,4396
2017-05-06T09:25:25.650Z,4420
2017-05-06T09:26:35.917Z,4428
2017-05-06T09:27:45.867Z,4440
2017-05-06T09:28:56.138Z,4440
2017-05-06T09:30:06.094Z,4472
2017-05-06T09:31:16.363Z,4480
2017-05-06T09:32:26.633Z,4492
2017-05-06T09:33:36.901Z,4508
2017-05-06T09:34:47.204Z,4516
2017-05-06T09:35:57.465Z,4532
2017-05-06T09:37:07.420Z,4548
2017-05-06T09:38:17.694Z,4564
2017-05-06T09:39:27.973Z,4580
2017-05-06T09:40:38.242Z,4588
2017-05-06T09:41:48.264Z,4604
2017-05-06T09:42:58.533Z,4624
2017-05-06T09:44:08.805Z,4672
2017-05-06T09:45:18.449Z,4696
2017-05-06T09:46:28.097Z,4672
2017-05-06T09:47:37.734Z,4672
2017-05-06T09:48:48.002Z,4684
2017-05-06T09:49:58.283Z,4724
2017-05-06T09:51:08.553Z,4724
2017-05-06T09:52:18.824Z,4712
2017-05-06T09:53:29.093Z,4716
2017-05-06T09:54:39.364Z,4720
2017-05-06T09:55:49.321Z,4724
2017-05-06T09:56:59.586Z,4740
2017-05-06T09:58:09.851Z,4752
2017-05-06T09:59:19.808Z,4764
2017-05-06T10:00:30.086Z,4776
2017-05-06T10:01:40.044Z,4784
2017-05-06T10:02:50.004Z,4796
2017-05-06T10:04:00.273Z,4808
2017-05-06T10:05:10.543Z,4816
2017-05-06T10:06:20.502Z,4832
2017-05-06T10:07:30.775Z,4836
2017-05-06T10:08:41.043Z,4840
2017-05-06T10:09:51.311Z,4852
2017-05-06T10:11:01.588Z,4868
2017-05-06T10:12:11.549Z,4880
2017-05-06T10:13:21.821Z,4888
2017-05-06T10:14:31.778Z,4900
2017-05-06T10:15:42.050Z,4920
2017-05-06T10:16:52.316Z,4928
2017-05-06T10:18:02.279Z,4948
2017-05-06T10:19:12.551Z,4968
2017-05-06T10:20:22.824Z,4988
2017-05-06T10:21:33.090Z,4988
2017-05-06T10:22:43.045Z,4996
2017-05-06T10:23:53.314Z,5004
2017-05-06T10:25:03.584Z,5024
2017-05-06T10:26:13.856Z,5032
2017-05-06T10:27:24.127Z,5052
2017-05-06T10:28:34.080Z,5064
2017-05-06T10:29:44.350Z,5080
2017-05-06T10:30:54.622Z,5096
2017-05-06T10:32:04.894Z,5108
2017-05-06T10:33:14.855Z,5120
2017-05-06T10:34:24.813Z,5140
2017-05-06T10:35:35.082Z,5144
2017-05-06T10:36:45.348Z,5152
2017-05-06T10:37:55.624Z,5168
2017-05-06T10:39:05.583Z,5172
2017-05-06T10:40:15.223Z,5188
2017-05-06T10:41:25.493Z,5236
2017-05-06T10:42:35.762Z,5220
2017-05-06T10:43:46.030Z,5252
2017-05-06T10:44:56.306Z,5264
2017-05-06T10:46:06.264Z,5272
2017-05-06T10:47:16.225Z,5288
2017-05-06T10:48:26.495Z,5304
2017-05-06T10:49:36.766Z,5320
2017-05-06T10:50:47.037Z,5340
2017-05-06T10:51:57.312Z,5352
2017-05-06T10:53:07.264Z,5368
2017-05-06T10:54:17.227Z,5384
2017-05-06T10:55:27.522Z,5396
2017-05-06T10:56:37.794Z,5408
2017-05-06T10:57:48.070Z,5424
2017-05-06T10:58:58.365Z,5444
2017-05-06T11:00:08.640Z,5464
2017-05-06T11:01:18.914Z,5480
2017-05-06T11:02:28.873Z,5500
2017-05-06T11:03:39.140Z,5520
2017-05-06T11:04:49.409Z,5540
2017-05-06T11:05:59.682Z,5572
2017-05-06T11:07:09.953Z,5604
2017-05-06T11:08:19.913Z,5628
2017-05-06T11:09:30.176Z,5644
2017-05-06T11:10:40.453Z,5660
2017-05-06T11:11:50.441Z,5676
2017-05-06T11:13:00.711Z,5736
2017-05-06T11:14:10.984Z,5724
2017-05-06T11:15:20.619Z,5736
2017-05-06T11:16:30.888Z,5772
2017-05-06T11:17:41.164Z,5864
2017-05-06T11:18:51.436Z,5952
2017-05-06T11:20:01.713Z,6016
2017-05-06T11:21:11.384Z,6128
2017-05-06T11:22:21.655Z,6496
2017-05-06T11:23:31.925Z,7296
2017-05-06T11:24:42.205Z,14916
2017-05-06T11:25:52.159Z,57984
2017-05-06T11:27:02.119Z,76768
2017-05-06T11:28:12.076Z,83424
2017-05-06T11:29:22.343Z,84992
2017-05-06T11:30:32.613Z,87424
2017-05-06T11:31:42.889Z,85504
2017-05-06T11:32:53.164Z,82240
2017-05-06T11:34:03.441Z,79840
2017-05-06T11:35:13.407Z,81856
2017-05-06T11:36:23.686Z,80992
2017-05-06T11:37:33.966Z,74432
2017-05-06T11:38:44.246Z,69664
2017-05-06T11:39:54.209Z,73312
2017-05-06T11:41:04.175Z,75072
2017-05-06T11:42:13.829Z,75680
2017-05-06T11:43:24.110Z,77696
2017-05-06T11:44:34.389Z,76576
2017-05-06T11:45:44.668Z,70784
2017-05-06T11:46:54.638Z,81824
2017-05-06T11:48:04.610Z,81888
2017-05-06T11:49:14.576Z,80640
2017-05-06T11:50:24.546Z,76768
2017-05-06T11:51:34.827Z,80160
2017-05-06T11:52:45.111Z,78304
2017-05-06T11:53:55.086Z,79488
2017-05-06T11:55:05.372Z,76768
2017-05-06T11:56:15.654Z,73664
2017-05-06T11:57:25.934Z,74624
2017-05-06T11:58:36.228Z,69056
2017-05-06T11:59:46.512Z,60800
2017-05-06T12:00:56.791Z,53728
2017-05-06T12:02:07.077Z,56096
2017-05-06T12:03:17.049Z,63936
2017-05-06T12:04:27.356Z,67328
2017-05-06T12:05:37.653Z,68832
2017-05-06T12:06:47.938Z,76352
2017-05-06T12:07:58.258Z,76608
2017-05-06T12:09:08.542Z,76256
2017-05-06T12:10:18.523Z,72896
2017-05-06T12:11:28.497Z,66848
2017-05-06T12:12:38.789Z,72224
2017-05-06T12:13:49.077Z,72608
2017-05-06T12:14:59.374Z,74528
2017-05-06T12:16:09.355Z,75712
2017-05-06T12:17:19.336Z,79136
2017-05-06T12:18:29.619Z,75520
2017-05-06T12:19:39.906Z,70944
2017-05-06T12:20:50.193Z,78464
2017-05-06T12:22:00.174Z,83712
2017-05-06T12:23:10.466Z,81152
2017-05-06T12:24:20.436Z,83328
2017-05-06T12:25:30.721Z,83104
2017-05-06T12:26:41.008Z,81024
2017-05-06T12:27:51.338Z,81696
2017-05-06T12:29:01.625Z,84384
2017-05-06T12:30:11.603Z,85632
2017-05-06T12:31:21.894Z,86624
2017-05-06T12:32:32.175Z,82592
2017-05-06T12:33:42.463Z,87008
2017-05-06T12:34:52.437Z,86240
2017-05-06T12:36:02.727Z,82400
2017-05-06T12:37:13.015Z,81376
2017-05-06T12:38:23.303Z,81216
2017-05-06T12:39:33.589Z,81792
2017-05-06T12:40:43.886Z,85984
2017-05-06T12:41:54.171Z,85824
2017-05-06T12:43:04.163Z,82144
2017-05-06T12:44:14.141Z,86880
2017-05-06T12:45:23.796Z,87328
2017-05-06T12:46:33.779Z,88704
2017-05-06T12:47:44.072Z,87808
2017-05-06T12:48:54.357Z,84544
2017-05-06T12:50:04.341Z,90912
2017-05-06T12:51:14.320Z,89632
2017-05-06T12:52:24.615Z,83904
2017-05-06T12:53:34.908Z,82912
2017-05-06T12:54:45.224Z,84992
2017-05-06T12:55:55.192Z,85408
2017-05-06T12:57:05.486Z,84288
2017-05-06T12:58:15.469Z,83520
2017-05-06T12:59:25.755Z,81024
2017-05-06T13:00:35.731Z,79168
2017-05-06T13:01:46.015Z,84000
2017-05-06T13:02:56.302Z,82336
2017-05-06T13:04:06.583Z,77536
2017-05-06T13:05:16.569Z,80064
2017-05-06T13:06:26.547Z,83520
2017-05-06T13:07:36.534Z,84256
2017-05-06T13:08:46.836Z,87168
2017-05-06T13:09:56.819Z,89408
2017-05-06T13:11:06.796Z,85536
2017-05-06T13:12:17.097Z,89376
2017-05-06T13:13:26.756Z,93792
2017-05-06T13:14:37.048Z,95392
2017-05-06T13:15:47.342Z,95872
2017-05-06T13:16:57.641Z,96448
2017-05-06T13:18:07.923Z,94624
2017-05-06T13:19:17.583Z,87584
2017-05-06T13:20:27.874Z,85024
2017-05-06T13:21:38.158Z,85856
2017-05-06T13:22:48.454Z,89440
2017-05-06T13:23:58.754Z,85664
2017-05-06T13:25:09.044Z,81376
2017-05-06T13:26:19.338Z,85920
2017-05-06T13:27:29.319Z,90016
2017-05-06T13:28:39.610Z,87328
2017-05-06T13:29:49.904Z,84864
2017-05-06T13:31:00.202Z,88096
2017-05-06T13:32:10.181Z,87904
2017-05-06T13:33:20.163Z,93280
2017-05-06T13:34:30.459Z,87840
2017-05-06T13:35:40.760Z,85568
2017-05-06T13:36:51.059Z,90528
2017-05-06T13:38:01.394Z,89728
2017-05-06T13:39:11.370Z,89312
2017-05-06T13:40:21.662Z,92320
2017-05-06T13:41:31.962Z,89056
2017-05-06T13:42:41.942Z,87936
2017-05-06T13:43:51.919Z,90656
2017-05-06T13:45:01.896Z,89888
2017-05-06T13:46:11.875Z,88768
2017-05-06T13:47:22.166Z,84384
2017-05-06T13:48:32.457Z,79232
2017-05-06T13:49:42.754Z,85920
2017-05-06T13:50:53.048Z,86592
2017-05-06T13:52:03.022Z,85472
2017-05-06T13:53:13.310Z,72064
2017-05-06T13:54:23.599Z,73728
2017-05-06T13:55:33.893Z,82656
2017-05-06T13:56:44.190Z,84448
2017-05-06T13:57:54.483Z,85120
2017-05-06T13:59:04.801Z,84352
2017-05-06T14:00:14.475Z,82240
2017-05-06T14:01:24.769Z,83488
2017-05-06T14:02:35.066Z,81952
2017-05-06T14:03:45.044Z,77280
2017-05-06T14:04:55.340Z,78688
2017-05-06T14:06:05.640Z,83264
2017-05-06T14:07:15.928Z,81120
2017-05-06T14:08:26.219Z,76576
2017-05-06T14:09:36.200Z,75904
2017-05-06T14:10:46.495Z,64000
2017-05-06T14:11:56.471Z,61440
2017-05-06T14:13:06.763Z,66688
2017-05-06T14:14:16.745Z,64992
2017-05-06T14:15:27.043Z,59648
2017-05-06T14:16:37.023Z,58784
2017-05-06T14:17:47.316Z,58336
2017-05-06T14:18:57.291Z,58176
2017-05-06T14:20:07.587Z,59424
2017-05-06T14:21:17.564Z,59584
2017-05-06T14:22:27.235Z,62624
2017-05-06T14:23:37.525Z,58688
2017-05-06T14:24:47.816Z,59296
2017-05-06T14:25:57.805Z,62976
2017-05-06T14:27:07.781Z,56992
2017-05-06T14:28:18.072Z,57888
2017-05-06T14:29:28.042Z,57120
2017-05-06T14:30:38.333Z,54144
2017-05-06T14:31:48.632Z,58784
2017-05-06T14:32:58.611Z,55328
2017-05-06T14:34:08.912Z,65568
2017-05-06T14:35:19.203Z,77120
2017-05-06T14:36:29.491Z,73792
2017-05-06T14:37:39.817Z,65312
2017-05-06T14:38:49.803Z,69952
2017-05-06T14:40:00.094Z,76704
2017-05-06T14:41:10.416Z,85728
2017-05-06T14:42:20.401Z,89952
2017-05-06T14:43:30.378Z,90048
2017-05-06T14:44:40.672Z,89760
2017-05-06T14:45:50.959Z,87616
2017-05-06T14:47:00.309Z,85472
2017-05-06T14:48:10.606Z,87264
2017-05-06T14:49:20.897Z,86240
2017-05-06T14:50:30.872Z,82688
2017-05-06T14:51:41.163Z,79584
2017-05-06T14:52:51.454Z,79904
2017-05-06T14:54:01.741Z,85024
2017-05-06T14:55:11.720Z,84800
2017-05-06T14:56:22.015Z,79616
2017-05-06T14:57:32.301Z,78912
2017-05-06T14:58:42.591Z,75936
2017-05-06T14:59:52.877Z,80288
2017-05-06T15:01:03.171Z,81472
2017-05-06T15:02:12.550Z,79296
2017-05-06T15:03:22.219Z,78336
2017-05-06T15:04:32.507Z,78048
2017-05-06T15:05:42.794Z,77856
2017-05-06T15:06:53.085Z,76864
2017-05-06T15:08:02.433Z,75296
2017-05-06T15:09:12.413Z,73696
2017-05-06T15:10:22.388Z,72032
2017-05-06T15:11:32.680Z,76320
2017-05-06T15:12:42.967Z,78144
2017-05-06T15:13:53.260Z,76800
2017-05-06T15:15:03.555Z,77824
2017-05-06T15:16:13.843Z,76160
2017-05-06T15:17:24.127Z,72736
2017-05-06T15:18:34.100Z,72992
2017-05-06T15:19:44.071Z,73280
2017-05-06T15:20:54.072Z,72896
2017-05-06T15:22:04.366Z,76256
2017-05-06T15:23:14.658Z,73952
2017-05-06T15:24:24.946Z,70720
2017-05-06T15:25:35.236Z,71040
2017-05-06T15:26:45.526Z,70592
2017-05-06T15:27:55.840Z,72640
2017-05-06T15:29:05.814Z,71968
2017-05-06T15:30:16.110Z,69888
2017-05-06T15:31:26.408Z,71008
2017-05-06T15:32:36.383Z,71840
2017-05-06T15:33:46.675Z,71936
2017-05-06T15:34:56.644Z,70336
2017-05-06T15:36:06.929Z,60608
2017-05-06T15:37:17.233Z,69760
2017-05-06T15:38:27.522Z,66688
2017-05-06T15:39:37.809Z,65248
2017-05-06T15:40:48.099Z,63520
2017-05-06T15:41:58.387Z,58048